sensor_id;sensor_type;location;lat;lon;timestamp;P1;durP1;ratioP1;P2;durP2;ratioP2
50355;SDS011;36264;51.296;-0.602;2022-09-09T00:04:29;1.67;;;1.00;;
50355;SDS011;36264;51.296;-0.602;2022-09-09T00:12:19;4.10;;;1.48;;
50355;SDS011;36264;51.296;-0.602;2022-09-09T00:14:58;3.67;;;1.52;;
50355;SDS011;36264;51.296;-0.602;2022-09-09T00:22:53;3.08;;;1.10;;
50355;SDS011;36264;51.296;-0.602;2022-09-09T00:28:20;3.55;;;1.35;;
50355;SDS011;36264;51.296;-0.602;2022-09-09T00:30:48;2.72;;;1.20;;
50355;SDS011;36264;51.296;-0.602;2022-09-09T00:33:14;1.77;;;1.15;;
50355;SDS011;36264;51.296;-0.602;2022-09-09T00:35:50;3.47;;;1.20;;
50355;SDS011;36264;51.296;-0.602;2022-09-09T00:38:38;2.53;;;1.23;;
50355;SDS011;36264;51.296;-0.602;2022-09-09T00:44:09;1.73;;;1.10;;
50355;SDS011;36264;51.296;-0.602;2022-09-09T00:46:59;3.60;;;1.30;;
50355;SDS011;36264;51.296;-0.602;2022-09-09T00:50:22;1.50;;;1.10;;
50355;SDS011;36264;51.296;-0.602;2022-09-09T00:58:18;2.15;;;1.30;;
50355;SDS011;36264;51.296;-0.602;2022-09-09T01:00:44;4.22;;;1.25;;
50355;SDS011;36264;51.296;-0.602;2022-09-09T01:06:00;3.28;;;1.38;;
50355;SDS011;36264;51.296;-0.602;2022-09-09T01:11:37;2.70;;;1.35;;
50355;SDS011;36264;51.296;-0.602;2022-09-09T01:14:16;2.00;;;1.17;;
50355;SDS011;36264;51.296;-0.602;2022-09-09T01:16:45;6.13;;;1.40;;
50355;SDS011;36264;51.296;-0.602;2022-09-09T01:22:08;2.53;;;1.20;;
50355;SDS011;36264;51.296;-0.602;2022-09-09T01:25:01;3.13;;;1.50;;
50355;SDS011;36264;51.296;-0.602;2022-09-09T01:27:51;2.35;;;1.38;;
50355;SDS011;36264;51.296;-0.602;2022-09-09T01:30:21;2.25;;;1.30;;
50355;SDS011;36264;51.296;-0.602;2022-09-09T01:32:52;1.45;;;1.00;;
50355;SDS011;36264;51.296;-0.602;2022-09-09T01:38:00;4.18;;;1.27;;
50355;SDS011;36264;51.296;-0.602;2022-09-09T01:40:26;4.55;;;1.30;;
50355;SDS011;36264;51.296;-0.602;2022-09-09T01:42:52;1.90;;;1.17;;
50355;SDS011;36264;51.296;-0.602;2022-09-09T01:45:18;1.75;;;1.00;;
50355;SDS011;36264;51.296;-0.602;2022-09-09T01:47:44;6.63;;;1.50;;
50355;SDS011;36264;51.296;-0.602;2022-09-09T01:50:11;1.50;;;1.00;;
50355;SDS011;36264;51.296;-0.602;2022-09-09T01:52:39;1.33;;;0.98;;
50355;SDS011;36264;51.296;-0.602;2022-09-09T01:55:06;2.13;;;0.95;;
50355;SDS011;36264;51.296;-0.602;2022-09-09T02:00:07;2.45;;;1.25;;
50355;SDS011;36264;51.296;-0.602;2022-09-09T02:07:58;2.53;;;1.13;;
50355;SDS011;36264;51.296;-0.602;2022-09-09T02:10:33;2.40;;;1.30;;
50355;SDS011;36264;51.296;-0.602;2022-09-09T02:13:15;2.63;;;1.25;;
50355;SDS011;36264;51.296;-0.602;2022-09-09T02:18:19;1.58;;;1.10;;
50355;SDS011;36264;51.296;-0.602;2022-09-09T02:20:51;2.47;;;1.20;;
50355;SDS011;36264;51.296;-0.602;2022-09-09T02:23:18;2.30;;;1.40;;
50355;SDS011;36264;51.296;-0.602;2022-09-09T02:25:44;2.38;;;1.10;;
50355;SDS011;36264;51.296;-0.602;2022-09-09T02:28:11;2.78;;;1.30;;
50355;SDS011;36264;51.296;-0.602;2022-09-09T02:30:39;2.30;;;1.13;;
50355;SDS011;36264;51.296;-0.602;2022-09-09T02:33:07;2.03;;;1.10;;
50355;SDS011;36264;51.296;-0.602;2022-09-09T02:35:37;2.53;;;1.30;;
50355;SDS011;36264;51.296;-0.602;2022-09-09T02:38:07;1.55;;;1.08;;
50355;SDS011;36264;51.296;-0.602;2022-09-09T02:40:37;2.28;;;1.30;;
50355;SDS011;36264;51.296;-0.602;2022-09-09T02:43:02;3.58;;;1.67;;
50355;SDS011;36264;51.296;-0.602;2022-09-09T02:45:34;4.70;;;1.80;;
50355;SDS011;36264;51.296;-0.602;2022-09-09T02:48:51;5.82;;;1.50;;
50355;SDS011;36264;51.296;-0.602;2022-09-09T02:53:58;3.35;;;1.50;;
50355;SDS011;36264;51.296;-0.602;2022-09-09T02:56:36;3.20;;;1.60;;
50355;SDS011;36264;51.296;-0.602;2022-09-09T02:59:07;5.50;;;1.70;;
50355;SDS011;36264;51.296;-0.602;2022-09-09T03:01:32;3.55;;;1.50;;
50355;SDS011;36264;51.296;-0.602;2022-09-09T03:03:58;3.60;;;1.50;;
50355;SDS011;36264;51.296;-0.602;2022-09-09T03:06:23;1.60;;;1.30;;
50355;SDS011;36264;51.296;-0.602;2022-09-09T03:08:49;6.40;;;1.50;;
50355;SDS011;36264;51.296;-0.602;2022-09-09T03:11:15;4.03;;;1.60;;
50355;SDS011;36264;51.296;-0.602;2022-09-09T03:13:41;4.60;;;1.77;;
50355;SDS011;36264;51.296;-0.602;2022-09-09T03:16:06;6.05;;;1.80;;
50355;SDS011;36264;51.296;-0.602;2022-09-09T03:18:32;4.90;;;1.80;;
50355;SDS011;36264;51.296;-0.602;2022-09-09T03:20:57;7.80;;;2.00;;
50355;SDS011;36264;51.296;-0.602;2022-09-09T03:23:24;7.00;;;1.77;;
50355;SDS011;36264;51.296;-0.602;2022-09-09T03:25:50;6.72;;;2.05;;
50355;SDS011;36264;51.296;-0.602;2022-09-09T03:28:16;6.60;;;2.10;;
50355;SDS011;36264;51.296;-0.602;2022-09-09T03:30:42;3.95;;;1.80;;
50355;SDS011;36264;51.296;-0.602;2022-09-09T03:33:07;5.90;;;1.60;;
50355;SDS011;36264;51.296;-0.602;2022-09-09T03:35:33;3.83;;;1.70;;
50355;SDS011;36264;51.296;-0.602;2022-09-09T03:37:58;4.57;;;1.60;;
50355;SDS011;36264;51.296;-0.602;2022-09-09T03:40:25;7.72;;;1.77;;
50355;SDS011;36264;51.296;-0.602;2022-09-09T03:42:51;4.93;;;1.80;;
50355;SDS011;36264;51.296;-0.602;2022-09-09T03:45:16;4.28;;;1.63;;
50355;SDS011;36264;51.296;-0.602;2022-09-09T03:47:42;3.95;;;1.55;;
50355;SDS011;36264;51.296;-0.602;2022-09-09T03:50:07;3.90;;;1.70;;
50355;SDS011;36264;51.296;-0.602;2022-09-09T03:52:36;4.78;;;2.22;;
50355;SDS011;36264;51.296;-0.602;2022-09-09T03:55:02;6.82;;;1.70;;
50355;SDS011;36264;51.296;-0.602;2022-09-09T03:57:28;3.83;;;1.65;;
50355;SDS011;36264;51.296;-0.602;2022-09-09T03:59:54;4.82;;;1.80;;
50355;SDS011;36264;51.296;-0.602;2022-09-09T04:02:20;6.72;;;2.05;;
50355;SDS011;36264;51.296;-0.602;2022-09-09T04:04:46;8.07;;;2.08;;
50355;SDS011;36264;51.296;-0.602;2022-09-09T04:07:11;7.57;;;2.38;;
50355;SDS011;36264;51.296;-0.602;2022-09-09T04:09:37;5.75;;;2.33;;
50355;SDS011;36264;51.296;-0.602;2022-09-09T04:12:03;10.18;;;2.40;;
50355;SDS011;36264;51.296;-0.602;2022-09-09T04:14:29;8.32;;;2.28;;
50355;SDS011;36264;51.296;-0.602;2022-09-09T04:16:54;4.53;;;2.08;;
50355;SDS011;36264;51.296;-0.602;2022-09-09T04:19:22;7.70;;;2.67;;
50355;SDS011;36264;51.296;-0.602;2022-09-09T04:21:47;5.20;;;2.35;;
50355;SDS011;36264;51.296;-0.602;2022-09-09T04:24:16;7.40;;;2.97;;
50355;SDS011;36264;51.296;-0.602;2022-09-09T04:26:41;5.82;;;2.20;;
50355;SDS011;36264;51.296;-0.602;2022-09-09T04:29:06;5.55;;;2.50;;
50355;SDS011;36264;51.296;-0.602;2022-09-09T04:31:32;5.65;;;2.75;;
50355;SDS011;36264;51.296;-0.602;2022-09-09T04:33:58;6.13;;;2.47;;
50355;SDS011;36264;51.296;-0.602;2022-09-09T04:36:27;6.80;;;2.50;;
50355;SDS011;36264;51.296;-0.602;2022-09-09T04:38:52;5.95;;;2.50;;
50355;SDS011;36264;51.296;-0.602;2022-09-09T04:41:18;5.97;;;2.50;;
50355;SDS011;36264;51.296;-0.602;2022-09-09T04:43:43;8.45;;;2.88;;
50355;SDS011;36264;51.296;-0.602;2022-09-09T04:46:08;6.18;;;2.65;;
50355;SDS011;36264;51.296;-0.602;2022-09-09T04:48:34;5.22;;;2.53;;
50355;SDS011;36264;51.296;-0.602;2022-09-09T04:51:00;4.78;;;2.17;;
50355;SDS011;36264;51.296;-0.602;2022-09-09T04:53:29;6.20;;;2.60;;
50355;SDS011;36264;51.296;-0.602;2022-09-09T04:56:06;5.20;;;2.15;;
50355;SDS011;36264;51.296;-0.602;2022-09-09T04:58:36;3.80;;;2.10;;
50355;SDS011;36264;51.296;-0.602;2022-09-09T05:01:03;5.13;;;2.42;;
50355;SDS011;36264;51.296;-0.602;2022-09-09T05:03:38;4.03;;;2.05;;
50355;SDS011;36264;51.296;-0.602;2022-09-09T05:06:08;4.75;;;2.30;;
50355;SDS011;36264;51.296;-0.602;2022-09-09T05:08:36;5.38;;;2.45;;
50355;SDS011;36264;51.296;-0.602;2022-09-09T05:11:04;6.95;;;2.50;;
50355;SDS011;36264;51.296;-0.602;2022-09-09T05:13:38;4.40;;;2.20;;
50355;SDS011;36264;51.296;-0.602;2022-09-09T05:16:03;5.65;;;2.00;;
50355;SDS011;36264;51.296;-0.602;2022-09-09T05:18:29;4.05;;;1.95;;
50355;SDS011;36264;51.296;-0.602;2022-09-09T05:20:58;5.78;;;2.10;;
50355;SDS011;36264;51.296;-0.602;2022-09-09T05:23:24;3.25;;;1.85;;
50355;SDS011;36264;51.296;-0.602;2022-09-09T05:25:56;5.32;;;2.00;;
50355;SDS011;36264;51.296;-0.602;2022-09-09T05:28:22;6.30;;;2.22;;
50355;SDS011;36264;51.296;-0.602;2022-09-09T05:30:59;5.70;;;2.50;;
50355;SDS011;36264;51.296;-0.602;2022-09-09T05:33:30;6.78;;;2.47;;
50355;SDS011;36264;51.296;-0.602;2022-09-09T05:36:07;5.50;;;2.60;;
50355;SDS011;36264;51.296;-0.602;2022-09-09T05:38:34;6.05;;;2.63;;
50355;SDS011;36264;51.296;-0.602;2022-09-09T05:41:00;7.88;;;2.90;;
50355;SDS011;36264;51.296;-0.602;2022-09-09T05:43:27;6.63;;;2.40;;
50355;SDS011;36264;51.296;-0.602;2022-09-09T05:48:33;4.60;;;2.20;;
50355;SDS011;36264;51.296;-0.602;2022-09-09T05:51:00;7.53;;;2.70;;
50355;SDS011;36264;51.296;-0.602;2022-09-09T05:53:27;6.07;;;2.80;;
50355;SDS011;36264;51.296;-0.602;2022-09-09T05:56:00;4.80;;;2.40;;
50355;SDS011;36264;51.296;-0.602;2022-09-09T05:58:26;8.30;;;3.03;;
50355;SDS011;36264;51.296;-0.602;2022-09-09T06:00:52;5.35;;;2.55;;
50355;SDS011;36264;51.296;-0.602;2022-09-09T06:03:19;5.88;;;2.50;;
50355;SDS011;36264;51.296;-0.602;2022-09-09T06:05:56;6.78;;;2.78;;
50355;SDS011;36264;51.296;-0.602;2022-09-09T06:08:22;6.00;;;2.55;;
50355;SDS011;36264;51.296;-0.602;2022-09-09T06:10:47;7.43;;;3.38;;
50355;SDS011;36264;51.296;-0.602;2022-09-09T06:13:13;7.97;;;3.10;;
50355;SDS011;36264;51.296;-0.602;2022-09-09T06:15:38;6.93;;;2.40;;
50355;SDS011;36264;51.296;-0.602;2022-09-09T06:18:03;4.97;;;2.22;;
50355;SDS011;36264;51.296;-0.602;2022-09-09T06:20:29;4.45;;;2.20;;
50355;SDS011;36264;51.296;-0.602;2022-09-09T06:22:55;5.30;;;2.53;;
50355;SDS011;36264;51.296;-0.602;2022-09-09T06:25:21;4.82;;;2.35;;
50355;SDS011;36264;51.296;-0.602;2022-09-09T06:27:49;5.03;;;2.13;;
50355;SDS011;36264;51.296;-0.602;2022-09-09T06:30:15;7.68;;;2.58;;
50355;SDS011;36264;51.296;-0.602;2022-09-09T06:32:42;4.57;;;2.28;;
50355;SDS011;36264;51.296;-0.602;2022-09-09T06:35:07;4.32;;;2.33;;
50355;SDS011;36264;51.296;-0.602;2022-09-09T06:37:33;6.10;;;2.83;;
50355;SDS011;36264;51.296;-0.602;2022-09-09T06:39:58;4.03;;;2.10;;
50355;SDS011;36264;51.296;-0.602;2022-09-09T06:42:24;3.83;;;2.13;;
50355;SDS011;36264;51.296;-0.602;2022-09-09T06:44:49;6.93;;;2.50;;
50355;SDS011;36264;51.296;-0.602;2022-09-09T06:47:14;5.85;;;2.53;;
50355;SDS011;36264;51.296;-0.602;2022-09-09T06:49:40;4.13;;;2.08;;
50355;SDS011;36264;51.296;-0.602;2022-09-09T06:52:05;4.40;;;1.90;;
50355;SDS011;36264;51.296;-0.602;2022-09-09T06:54:31;6.18;;;2.70;;
50355;SDS011;36264;51.296;-0.602;2022-09-09T06:56:56;5.10;;;2.13;;
50355;SDS011;36264;51.296;-0.602;2022-09-09T06:59:22;4.68;;;2.10;;
50355;SDS011;36264;51.296;-0.602;2022-09-09T07:01:47;4.28;;;2.40;;
50355;SDS011;36264;51.296;-0.602;2022-09-09T07:04:13;4.97;;;2.25;;
50355;SDS011;36264;51.296;-0.602;2022-09-09T07:06:42;4.45;;;2.42;;
50355;SDS011;36264;51.296;-0.602;2022-09-09T07:11:40;6.18;;;2.60;;
50355;SDS011;36264;51.296;-0.602;2022-09-09T07:14:07;7.43;;;2.53;;
50355;SDS011;36264;51.296;-0.602;2022-09-09T07:16:34;5.85;;;2.40;;
50355;SDS011;36264;51.296;-0.602;2022-09-09T07:19:01;4.93;;;2.50;;
50355;SDS011;36264;51.296;-0.602;2022-09-09T07:21:28;4.32;;;2.20;;
50355;SDS011;36264;51.296;-0.602;2022-09-09T07:23:55;5.28;;;2.20;;
50355;SDS011;36264;51.296;-0.602;2022-09-09T07:26:22;3.75;;;2.15;;
50355;SDS011;36264;51.296;-0.602;2022-09-09T07:28:50;6.82;;;3.03;;
50355;SDS011;36264;51.296;-0.602;2022-09-09T07:31:17;3.78;;;2.13;;
50355;SDS011;36264;51.296;-0.602;2022-09-09T07:33:44;4.90;;;2.63;;
50355;SDS011;36264;51.296;-0.602;2022-09-09T07:36:14;5.28;;;2.63;;
50355;SDS011;36264;51.296;-0.602;2022-09-09T07:38:46;5.20;;;2.80;;
50355;SDS011;36264;51.296;-0.602;2022-09-09T07:41:18;4.10;;;2.65;;
50355;SDS011;36264;51.296;-0.602;2022-09-09T07:43:50;4.40;;;2.65;;
50355;SDS011;36264;51.296;-0.602;2022-09-09T07:46:19;4.68;;;2.42;;
50355;SDS011;36264;51.296;-0.602;2022-09-09T07:48:46;5.88;;;3.17;;
50355;SDS011;36264;51.296;-0.602;2022-09-09T07:51:16;4.72;;;2.45;;
50355;SDS011;36264;51.296;-0.602;2022-09-09T07:53:45;4.47;;;2.90;;
50355;SDS011;36264;51.296;-0.602;2022-09-09T07:56:12;4.20;;;2.65;;
50355;SDS011;36264;51.296;-0.602;2022-09-09T07:58:41;4.73;;;2.70;;
50355;SDS011;36264;51.296;-0.602;2022-09-09T08:01:13;5.85;;;3.33;;
50355;SDS011;36264;51.296;-0.602;2022-09-09T08:03:47;4.30;;;2.78;;
50355;SDS011;36264;51.296;-0.602;2022-09-09T08:06:20;5.35;;;3.47;;
50355;SDS011;36264;51.296;-0.602;2022-09-09T08:08:49;8.55;;;4.10;;
50355;SDS011;36264;51.296;-0.602;2022-09-09T08:11:15;7.53;;;3.78;;
50355;SDS011;36264;51.296;-0.602;2022-09-09T08:13:41;7.57;;;3.80;;
50355;SDS011;36264;51.296;-0.602;2022-09-09T08:16:09;5.57;;;3.58;;
50355;SDS011;36264;51.296;-0.602;2022-09-09T08:18:42;7.10;;;3.65;;
50355;SDS011;36264;51.296;-0.602;2022-09-09T08:21:13;5.65;;;3.50;;
50355;SDS011;36264;51.296;-0.602;2022-09-09T08:23:43;6.53;;;3.22;;
50355;SDS011;36264;51.296;-0.602;2022-09-09T08:28:39;8.02;;;3.75;;
50355;SDS011;36264;51.296;-0.602;2022-09-09T08:31:15;7.13;;;3.47;;
50355;SDS011;36264;51.296;-0.602;2022-09-09T08:33:42;8.38;;;3.60;;
50355;SDS011;36264;51.296;-0.602;2022-09-09T08:36:11;5.60;;;3.38;;
50355;SDS011;36264;51.296;-0.602;2022-09-09T08:38:42;9.52;;;4.10;;
50355;SDS011;36264;51.296;-0.602;2022-09-09T08:41:16;8.15;;;3.72;;
50355;SDS011;36264;51.296;-0.602;2022-09-09T08:55:47;6.75;;;3.42;;
50355;SDS011;36264;51.296;-0.602;2022-09-09T08:58:26;7.38;;;3.95;;
50355;SDS011;36264;51.296;-0.602;2022-09-09T09:11:26;5.80;;;2.75;;
50355;SDS011;36264;51.296;-0.602;2022-09-09T09:13:56;5.70;;;2.97;;
50355;SDS011;36264;51.296;-0.602;2022-09-09T09:16:32;6.15;;;3.00;;
50355;SDS011;36264;51.296;-0.602;2022-09-09T09:19:02;6.10;;;2.65;;
50355;SDS011;36264;51.296;-0.602;2022-09-09T09:27:52;4.72;;;1.90;;
50355;SDS011;36264;51.296;-0.602;2022-09-09T09:30:18;6.32;;;2.15;;
50355;SDS011;36264;51.296;-0.602;2022-09-09T09:33:20;6.07;;;2.10;;
50355;SDS011;36264;51.296;-0.602;2022-09-09T09:35:42;7.18;;;2.58;;
50355;SDS011;36264;51.296;-0.602;2022-09-09T09:38:51;3.47;;;1.80;;
50355;SDS011;36264;51.296;-0.602;2022-09-09T09:41:00;4.13;;;1.70;;
50355;SDS011;36264;51.296;-0.602;2022-09-09T09:45:53;3.03;;;1.63;;
50355;SDS011;36264;51.296;-0.602;2022-09-09T09:48:18;3.88;;;1.88;;
50355;SDS011;36264;51.296;-0.602;2022-09-09T09:53:38;3.53;;;1.60;;
50355;SDS011;36264;51.296;-0.602;2022-09-09T09:56:04;3.03;;;1.60;;
50355;SDS011;36264;51.296;-0.602;2022-09-09T09:58:36;3.47;;;1.52;;
50355;SDS011;36264;51.296;-0.602;2022-09-09T10:01:33;5.65;;;1.83;;
50355;SDS011;36264;51.296;-0.602;2022-09-09T10:04:01;2.33;;;1.40;;
50355;SDS011;36264;51.296;-0.602;2022-09-09T10:06:42;3.42;;;1.55;;
50355;SDS011;36264;51.296;-0.602;2022-09-09T10:14:42;2.90;;;1.40;;
50355;SDS011;36264;51.296;-0.602;2022-09-09T10:22:35;2.78;;;1.35;;
50355;SDS011;36264;51.296;-0.602;2022-09-09T10:33:01;5.00;;;1.80;;
50355;SDS011;36264;51.296;-0.602;2022-09-09T10:38:37;2.10;;;1.30;;
50355;SDS011;36264;51.296;-0.602;2022-09-09T10:41:31;2.05;;;1.23;;
50355;SDS011;36264;51.296;-0.602;2022-09-09T10:57:26;2.47;;;1.40;;
50355;SDS011;36264;51.296;-0.602;2022-09-09T10:59:57;2.95;;;1.30;;
50355;SDS011;36264;51.296;-0.602;2022-09-09T11:02:30;2.47;;;1.30;;
50355;SDS011;36264;51.296;-0.602;2022-09-09T11:05:01;2.75;;;1.30;;
50355;SDS011;36264;51.296;-0.602;2022-09-09T11:07:33;1.55;;;1.20;;
50355;SDS011;36264;51.296;-0.602;2022-09-09T11:10:05;1.38;;;1.10;;
50355;SDS011;36264;51.296;-0.602;2022-09-09T11:12:48;2.33;;;1.20;;
50355;SDS011;36264;51.296;-0.602;2022-09-09T11:15:39;3.92;;;1.50;;
50355;SDS011;36264;51.296;-0.602;2022-09-09T11:18:11;2.33;;;1.17;;
50355;SDS011;36264;51.296;-0.602;2022-09-09T11:20:41;3.28;;;1.30;;
50355;SDS011;36264;51.296;-0.602;2022-09-09T11:23:51;5.10;;;1.60;;
50355;SDS011;36264;51.296;-0.602;2022-09-09T11:26:08;3.40;;;1.20;;
50355;SDS011;36264;51.296;-0.602;2022-09-09T11:34:21;2.15;;;1.23;;
50355;SDS011;36264;51.296;-0.602;2022-09-09T11:37:35;4.55;;;1.38;;
50355;SDS011;36264;51.296;-0.602;2022-09-09T11:42:48;2.85;;;1.30;;
50355;SDS011;36264;51.296;-0.602;2022-09-09T11:45:22;3.50;;;1.10;;
50355;SDS011;36264;51.296;-0.602;2022-09-09T11:47:56;3.78;;;1.17;;
50355;SDS011;36264;51.296;-0.602;2022-09-09T11:52:49;6.72;;;1.90;;
50355;SDS011;36264;51.296;-0.602;2022-09-09T11:55:24;2.42;;;1.50;;
50355;SDS011;36264;51.296;-0.602;2022-09-09T11:57:58;2.83;;;1.40;;
50355;SDS011;36264;51.296;-0.602;2022-09-09T12:00:35;5.50;;;1.88;;
50355;SDS011;36264;51.296;-0.602;2022-09-09T12:03:02;2.25;;;1.50;;
50355;SDS011;36264;51.296;-0.602;2022-09-09T12:05:39;2.20;;;1.30;;
50355;SDS011;36264;51.296;-0.602;2022-09-09T12:08:09;1.80;;;1.30;;
50355;SDS011;36264;51.296;-0.602;2022-09-09T12:10:38;1.85;;;1.02;;
50355;SDS011;36264;51.296;-0.602;2022-09-09T12:13:24;3.90;;;1.20;;
50355;SDS011;36264;51.296;-0.602;2022-09-09T12:15:51;3.90;;;1.70;;
50355;SDS011;36264;51.296;-0.602;2022-09-09T12:18:34;1.92;;;1.10;;
50355;SDS011;36264;51.296;-0.602;2022-09-09T12:23:52;2.25;;;1.20;;
50355;SDS011;36264;51.296;-0.602;2022-09-09T12:29:23;1.90;;;1.20;;
50355;SDS011;36264;51.296;-0.602;2022-09-09T12:31:56;3.60;;;1.58;;
50355;SDS011;36264;51.296;-0.602;2022-09-09T12:34:59;3.50;;;1.40;;
50355;SDS011;36264;51.296;-0.602;2022-09-09T12:37:32;2.22;;;1.23;;
50355;SDS011;36264;51.296;-0.602;2022-09-09T12:40:02;3.00;;;1.20;;
50355;SDS011;36264;51.296;-0.602;2022-09-09T12:42:29;2.58;;;1.40;;
50355;SDS011;36264;51.296;-0.602;2022-09-09T12:44:57;4.47;;;1.50;;
50355;SDS011;36264;51.296;-0.602;2022-09-09T12:47:26;3.47;;;1.48;;
50355;SDS011;36264;51.296;-0.602;2022-09-09T12:50:23;3.50;;;1.40;;
50355;SDS011;36264;51.296;-0.602;2022-09-09T12:52:51;4.47;;;1.58;;
50355;SDS011;36264;51.296;-0.602;2022-09-09T12:55:24;1.70;;;1.25;;
50355;SDS011;36264;51.296;-0.602;2022-09-09T12:57:52;3.33;;;1.50;;
50355;SDS011;36264;51.296;-0.602;2022-09-09T13:00:20;2.15;;;1.23;;
50355;SDS011;36264;51.296;-0.602;2022-09-09T13:02:51;2.30;;;1.35;;
50355;SDS011;36264;51.296;-0.602;2022-09-09T13:05:23;3.63;;;1.35;;
50355;SDS011;36264;51.296;-0.602;2022-09-09T13:08:04;3.40;;;1.20;;
50355;SDS011;36264;51.296;-0.602;2022-09-09T13:10:35;2.58;;;1.30;;
50355;SDS011;36264;51.296;-0.602;2022-09-09T13:13:14;2.15;;;1.30;;
50355;SDS011;36264;51.296;-0.602;2022-09-09T13:15:48;3.97;;;1.50;;
50355;SDS011;36264;51.296;-0.602;2022-09-09T13:18:16;3.10;;;1.40;;
50355;SDS011;36264;51.296;-0.602;2022-09-09T13:20:47;2.13;;;1.25;;
50355;SDS011;36264;51.296;-0.602;2022-09-09T13:23:13;6.05;;;1.50;;
50355;SDS011;36264;51.296;-0.602;2022-09-09T13:25:42;1.80;;;1.13;;
50355;SDS011;36264;51.296;-0.602;2022-09-09T13:28:20;2.58;;;1.30;;
50355;SDS011;36264;51.296;-0.602;2022-09-09T13:30:57;1.65;;;1.10;;
50355;SDS011;36264;51.296;-0.602;2022-09-09T13:33:29;2.55;;;1.20;;
50355;SDS011;36264;51.296;-0.602;2022-09-09T13:36:07;2.75;;;0.98;;
50355;SDS011;36264;51.296;-0.602;2022-09-09T13:38:43;2.45;;;1.33;;
50355;SDS011;36264;51.296;-0.602;2022-09-09T13:41:25;1.23;;;0.98;;
50355;SDS011;36264;51.296;-0.602;2022-09-09T13:43:59;2.30;;;1.20;;
50355;SDS011;36264;51.296;-0.602;2022-09-09T13:46:36;2.08;;;1.08;;
50355;SDS011;36264;51.296;-0.602;2022-09-09T13:49:23;3.65;;;1.10;;
50355;SDS011;36264;51.296;-0.602;2022-09-09T13:52:02;1.75;;;0.90;;
50355;SDS011;36264;51.296;-0.602;2022-09-09T13:54:34;1.83;;;1.02;;
50355;SDS011;36264;51.296;-0.602;2022-09-09T13:57:00;2.75;;;1.30;;
50355;SDS011;36264;51.296;-0.602;2022-09-09T13:59:26;3.17;;;1.20;;
50355;SDS011;36264;51.296;-0.602;2022-09-09T14:01:52;3.05;;;1.40;;
50355;SDS011;36264;51.296;-0.602;2022-09-09T14:04:18;2.35;;;1.33;;
50355;SDS011;36264;51.296;-0.602;2022-09-09T14:06:46;1.92;;;1.10;;
50355;SDS011;36264;51.296;-0.602;2022-09-09T14:09:14;1.85;;;1.00;;
50355;SDS011;36264;51.296;-0.602;2022-09-09T14:11:41;1.98;;;1.20;;
50355;SDS011;36264;51.296;-0.602;2022-09-09T14:14:07;2.42;;;1.17;;
50355;SDS011;36264;51.296;-0.602;2022-09-09T14:16:33;2.95;;;1.33;;
50355;SDS011;36264;51.296;-0.602;2022-09-09T14:18:59;1.55;;;1.20;;
50355;SDS011;36264;51.296;-0.602;2022-09-09T14:21:25;5.10;;;1.65;;
50355;SDS011;36264;51.296;-0.602;2022-09-09T14:23:51;2.65;;;1.30;;
50355;SDS011;36264;51.296;-0.602;2022-09-09T14:26:20;2.95;;;1.35;;
50355;SDS011;36264;51.296;-0.602;2022-09-09T14:28:46;1.88;;;1.10;;
50355;SDS011;36264;51.296;-0.602;2022-09-09T14:31:13;2.58;;;1.40;;
50355;SDS011;36264;51.296;-0.602;2022-09-09T14:33:39;2.20;;;1.45;;
50355;SDS011;36264;51.296;-0.602;2022-09-09T14:36:05;1.80;;;1.23;;
50355;SDS011;36264;51.296;-0.602;2022-09-09T14:38:34;2.60;;;1.35;;
50355;SDS011;36264;51.296;-0.602;2022-09-09T14:41:05;2.67;;;1.15;;
50355;SDS011;36264;51.296;-0.602;2022-09-09T14:43:43;1.85;;;1.00;;
50355;SDS011;36264;51.296;-0.602;2022-09-09T14:46:13;2.47;;;1.20;;
50355;SDS011;36264;51.296;-0.602;2022-09-09T14:48:40;2.92;;;1.83;;
50355;SDS011;36264;51.296;-0.602;2022-09-09T14:51:16;2.67;;;1.40;;
50355;SDS011;36264;51.296;-0.602;2022-09-09T14:53:44;2.08;;;1.40;;
50355;SDS011;36264;51.296;-0.602;2022-09-09T14:58:38;3.47;;;1.40;;
50355;SDS011;36264;51.296;-0.602;2022-09-09T15:01:04;1.65;;;1.08;;
50355;SDS011;36264;51.296;-0.602;2022-09-09T15:03:31;3.80;;;1.40;;
50355;SDS011;36264;51.296;-0.602;2022-09-09T15:05:56;1.88;;;1.13;;
50355;SDS011;36264;51.296;-0.602;2022-09-09T15:08:24;1.83;;;1.27;;
50355;SDS011;36264;51.296;-0.602;2022-09-09T15:10:50;3.85;;;1.50;;
50355;SDS011;36264;51.296;-0.602;2022-09-09T15:13:23;3.28;;;1.23;;
50355;SDS011;36264;51.296;-0.602;2022-09-09T15:15:49;1.83;;;1.00;;
50355;SDS011;36264;51.296;-0.602;2022-09-09T15:18:15;2.10;;;1.10;;
50355;SDS011;36264;51.296;-0.602;2022-09-09T15:20:44;3.58;;;1.20;;
50355;SDS011;36264;51.296;-0.602;2022-09-09T15:25:36;2.45;;;1.20;;
50355;SDS011;36264;51.296;-0.602;2022-09-09T15:28:02;3.30;;;1.20;;
50355;SDS011;36264;51.296;-0.602;2022-09-09T15:30:27;1.88;;;1.38;;
50355;SDS011;36264;51.296;-0.602;2022-09-09T15:32:52;2.25;;;1.23;;
50355;SDS011;36264;51.296;-0.602;2022-09-09T15:35:18;2.95;;;1.20;;
50355;SDS011;36264;51.296;-0.602;2022-09-09T15:37:44;1.40;;;1.10;;
50355;SDS011;36264;51.296;-0.602;2022-09-09T15:40:10;4.22;;;1.48;;
50355;SDS011;36264;51.296;-0.602;2022-09-09T15:42:35;1.13;;;0.95;;
50355;SDS011;36264;51.296;-0.602;2022-09-09T15:45:00;2.10;;;1.20;;
50355;SDS011;36264;51.296;-0.602;2022-09-09T15:47:26;2.08;;;1.20;;
50355;SDS011;36264;51.296;-0.602;2022-09-09T15:49:52;3.63;;;1.25;;
50355;SDS011;36264;51.296;-0.602;2022-09-09T15:52:18;3.13;;;1.10;;
50355;SDS011;36264;51.296;-0.602;2022-09-09T15:54:43;2.53;;;1.17;;
50355;SDS011;36264;51.296;-0.602;2022-09-09T15:57:10;1.25;;;0.88;;
50355;SDS011;36264;51.296;-0.602;2022-09-09T15:59:37;1.20;;;1.00;;
50355;SDS011;36264;51.296;-0.602;2022-09-09T16:02:03;1.65;;;1.25;;
50355;SDS011;36264;51.296;-0.602;2022-09-09T16:04:30;1.73;;;1.10;;
50355;SDS011;36264;51.296;-0.602;2022-09-09T16:06:57;1.60;;;1.15;;
50355;SDS011;36264;51.296;-0.602;2022-09-09T16:09:26;3.20;;;1.13;;
50355;SDS011;36264;51.296;-0.602;2022-09-09T16:11:52;2.47;;;1.52;;
50355;SDS011;36264;51.296;-0.602;2022-09-09T16:14:21;1.40;;;0.90;;
50355;SDS011;36264;51.296;-0.602;2022-09-09T16:16:46;1.90;;;1.13;;
50355;SDS011;36264;51.296;-0.602;2022-09-09T16:19:13;1.13;;;1.02;;
50355;SDS011;36264;51.296;-0.602;2022-09-09T16:21:40;2.95;;;1.30;;
50355;SDS011;36264;51.296;-0.602;2022-09-09T16:24:08;2.58;;;1.20;;
50355;SDS011;36264;51.296;-0.602;2022-09-09T16:26:36;2.60;;;1.10;;
50355;SDS011;36264;51.296;-0.602;2022-09-09T16:29:06;2.47;;;1.20;;
50355;SDS011;36264;51.296;-0.602;2022-09-09T16:31:31;1.75;;;1.20;;
50355;SDS011;36264;51.296;-0.602;2022-09-09T16:33:57;0.98;;;0.90;;
50355;SDS011;36264;51.296;-0.602;2022-09-09T16:36:30;2.85;;;1.40;;
50355;SDS011;36264;51.296;-0.602;2022-09-09T16:38:58;1.58;;;1.33;;
50355;SDS011;36264;51.296;-0.602;2022-09-09T16:41:25;2.80;;;1.60;;
50355;SDS011;36264;51.296;-0.602;2022-09-09T16:43:53;1.50;;;1.30;;
50355;SDS011;36264;51.296;-0.602;2022-09-09T16:46:20;1.92;;;1.20;;
50355;SDS011;36264;51.296;-0.602;2022-09-09T16:48:46;1.70;;;1.20;;
50355;SDS011;36264;51.296;-0.602;2022-09-09T16:51:17;2.42;;;1.30;;
50355;SDS011;36264;51.296;-0.602;2022-09-09T16:53:43;2.45;;;1.27;;
50355;SDS011;36264;51.296;-0.602;2022-09-09T16:56:13;2.47;;;1.50;;
50355;SDS011;36264;51.296;-0.602;2022-09-09T16:58:41;2.78;;;1.30;;
50355;SDS011;36264;51.296;-0.602;2022-09-09T17:03:39;2.40;;;1.20;;
50355;SDS011;36264;51.296;-0.602;2022-09-09T17:06:12;2.90;;;1.30;;
50355;SDS011;36264;51.296;-0.602;2022-09-09T17:08:38;2.33;;;1.20;;
50355;SDS011;36264;51.296;-0.602;2022-09-09T17:11:13;1.65;;;1.20;;
50355;SDS011;36264;51.296;-0.602;2022-09-09T17:13:40;1.85;;;1.20;;
50355;SDS011;36264;51.296;-0.602;2022-09-09T17:16:07;2.42;;;1.40;;
50355;SDS011;36264;51.296;-0.602;2022-09-09T17:18:33;2.08;;;1.50;;
50355;SDS011;36264;51.296;-0.602;2022-09-09T17:21:02;2.25;;;1.38;;